• Join FlightAware (Why Join?)
  • Login
  • US Flag 
08:03PM EST


 

Airport Tracker/Info


-or-


 

Live Flight TrackerFlight Track Log ✈ N400PU ✈ 21-Nov-2013 ✈ KUNV - KLAF

Flight Track Log - Related Links

Times and Time Zones

All times are in EST time to prevent confusion due to time zone crossing. See the N400PU flight status page for this flight to view local times or setup timezone preferences in your user account.

Time Position Orientation Groundspeed Altitude Reporting Facility
EST Latitude Longitude Course Direction KTS MPH feet Rate Location/Type
02:58PM 40.8275 -77.9075 270° West 453 521 4,200  Level New York Center
02:59PM 40.8264 -77.9858 269° West 225 259 7,100 1,920 Climbing Cleveland Center
03:00PM 40.8275 -78.0636 271° West 239 275 8,000 960 Climbing Cleveland Center
03:01PM 40.8278 -78.1700 270° West 242 278 9,200 1,560 Climbing Cleveland Center
03:02PM 40.8424 -78.4591 270° West  Level Estimated
03:02PM 40.8292 -78.2608 271° West 247 284 11,300  Level Cleveland Center
03:03PM 40.8406 -78.5811 270° West  Level Estimated
03:03PM 40.8297 -78.3575 270° West 261 300 13,500  Level Cleveland Center
03:04PM 40.8308 -78.4561 271° West 267 307 15,700 1,980 Climbing Cleveland Center
03:05PM 40.8308 -78.5506 270° West 258 297 17,700 1,500 Climbing Cleveland Center
03:06PM 40.8308 -78.6475 270° West 262 302 18,900 1,500 Climbing Cleveland Center
03:07PM 40.8314 -78.7814 270° West 300 345 20,800 1,740 Climbing Cleveland Center
03:08PM 40.8308 -78.9008 270° West 321 369 22,500 1,500 Climbing Cleveland Center
03:09PM 40.8322 -79.0089 271° West 330 380 23,900 1,500 Climbing Cleveland Center
03:10PM 40.8325 -79.1536 270° West 331 381 25,700 1,560 Climbing Cleveland Center
03:11PM 40.8317 -79.2750 270° West 332 382 27,200 1,440 Climbing Cleveland Center
03:12PM 40.8311 -79.3950 270° West 331 381 28,700 1,320 Climbing Cleveland Center
03:13PM 40.8308 -79.5150 270° West 329 379 30,000 1,140 Climbing Cleveland Center
03:14PM 40.8311 -79.6367 270° West 334 384 31,100 1,080 Climbing Cleveland Center
03:15PM 40.8297 -79.7597 269° West 337 388 32,300 1,200 Climbing Cleveland Center
03:16PM 40.8281 -79.9072 269° West 338 389 33,600 780 Climbing Cleveland Center
03:17PM 40.8272 -80.0206 269° West 336 387 34,000 180 Climbing Cleveland Center
03:18PM 40.8264 -80.1756 270° West 352 405 34,000  Level Cleveland Center
03:19PM 40.8225 -80.3039 268° West 351 404 34,000 120 Level Cleveland Center
03:21PM 40.8181 -80.4311 267° West 348 400 34,300 480 Climbing Cleveland Center
03:22PM 40.8133 -80.5569 267° West 342 394 35,100 780 Climbing Cleveland Center
03:23PM 40.8094 -80.6800 268° West 334 384 36,000 420 Climbing Cleveland Center
03:24PM 40.8033 -80.8069 266° West 339 390 36,000  Level Cleveland Center
03:25PM 40.7983 -80.9339 267° West 346 398 36,000  Level Cleveland Center
03:26PM 40.7906 -81.0856 266° West 349 402 36,000  Level Cleveland Center
03:27PM 40.7850 -81.2133 267° West 347 399 36,000  Level Cleveland Center
03:28PM 40.7792 -81.3422 267° West 347 399 36,000  Level Cleveland Center
03:29PM 40.7717 -81.4717 266° West 349 402 36,000  Level Cleveland Center
03:30PM 40.7661 -81.6014 267° West 351 404 36,000  Level Cleveland Center
03:31PM 40.7594 -81.7317 266° West 351 404 36,000  Level Cleveland Center
03:32PM 40.7539 -81.8622 267° West 353 406 36,000  Level Cleveland Center
03:33PM 40.7464 -81.9939 266° West 355 409 36,000  Level Cleveland Center
03:34PM 40.7378 -82.1444 266° West 349 402 36,000  Level Cleveland Center
03:35PM 40.7333 -82.2303 266° West 346 398 36,000  Level Indianapolis Center
03:36PM 40.7269 -82.3581 266° West 346 398 36,000  Level Indianapolis Center
03:37PM 40.7186 -82.4850 265° West 344 396 36,000  Level Indianapolis Center
03:38PM 40.7117 -82.6133 266° West 346 398 36,000  Level Indianapolis Center
03:39PM 40.7039 -82.7397 265° West 344 396 36,000  Level Indianapolis Center
03:40PM 40.6953 -82.8892 266° West 347 399 36,000  Level Indianapolis Center
03:41PM 40.6886 -83.0172 266° West 348 400 36,000  Level Indianapolis Center
03:42PM 40.6806 -83.1439 265° West 344 396 36,000  Level Indianapolis Center
03:43PM 40.6725 -83.2753 265° West 349 402 36,000  Level Indianapolis Center
03:44PM 40.6639 -83.4003 265° West 346 398 36,000 -300 Level Indianapolis Center
03:45PM 40.6558 -83.5219 265° West 338 389 35,500 -840 Descending Indianapolis Center
03:46PM 40.6475 -83.6483 265° West 347 399 34,300 -1,500 Descending Indianapolis Center
03:47PM 40.6372 -83.8014 265° West 352 405 32,500 -1,980 Descending Indianapolis Center
03:48PM 40.6289 -83.9333 265° West 363 418 30,300 -2,160 Descending Indianapolis Center
03:49PM 40.6183 -84.0700 264° West 376 433 28,100 -1,800 Descending Indianapolis Center
03:50PM 40.6078 -84.2111 264° West 389 448 26,600 -1,500 Descending Indianapolis Center
03:51PM 40.5981 -84.3556 265° West 396 456 25,000 -1,680 Descending Indianapolis Center
03:52PM 40.5844 -84.5283 264° West 399 459 23,100 -1,020 Descending Indianapolis Center
03:53PM 40.5753 -84.6692 265° West 390 449 23,000 -60 Descending Indianapolis Center
03:54PM 40.5631 -84.8111 264° West 392 451 23,000  Level Indianapolis Center
03:55PM 40.5525 -84.9511 264° West 376 433 23,000  Level Indianapolis Center
03:56PM 40.5419 -85.0894 264° West 382 440 23,000  Level Indianapolis Center
03:58PM 40.5289 -85.2539 264° West 381 438 23,000 -600 Level Chicago Center
03:59PM 40.5169 -85.3919 264° West 383 441 21,800 -1,320 Descending Chicago Center
04:00PM 40.5058 -85.5275 264° West 378 435 20,300 -1,500 Descending Chicago Center
04:01PM 40.4953 -85.6592 264° West 366 421 18,800 -1,260 Descending Chicago Center
04:02PM 40.4856 -85.7886 264° West 360 414 17,700 -1,440 Descending Chicago Center
04:03PM 40.4856 -85.9361 270° West 344 396 15,900 -1,680 Descending Chicago Center
04:04PM 40.5047 -86.0597 282° West 347 399 14,300 -1,620 Descending Chicago Center
04:04PM 40.5147 -86.1228 282° West 352 405 13,600 -1,440 Descending Chicago Center
04:05PM 40.5119 -86.1842 267° West 350 403 12,800 -1,620 Descending Chicago Center
04:05PM 40.5081 -86.2017 254° West 332 382 12,500 -1,800 Descending Chicago Center
04:06PM 40.4964 -86.2992 261° West 326 375 11,000 -1,500 Descending Chicago Center
04:06PM 40.4936 -86.3236 262° West 322 371 11,000 -780 Level Chicago Center
04:07PM 40.4778 -86.4158 257° West 247 284 10,200 -1,680 Descending Chicago Center
04:08PM 40.4528 -86.4892 246° West 217 250 7,700 -2,520 Descending Chicago Center
04:08PM 40.4500 -86.4961 242° Southwest 192 221 7,400 -2,940 Descending Chicago Center
04:09PM 40.4286 -86.5578 246° West 211 243 4,700 -2,880 Descending Chicago Center
04:09PM 40.4244 -86.5683 243° Southwest 205 236 4,500 -1,080 Descending Chicago Center
04:10PM 40.4036 -86.6269 245° Southwest 185 213 3,600 -780 Descending Chicago Center
04:11PM 40.3861 -86.6761 245° Southwest 190 219 3,000 -720 Descending Chicago Center
04:11PM 40.3828 -86.6831 238° Southwest 159 183 2,900 -300 Descending Chicago Center
04:12PM 40.3892 -86.7408 278° West 165 190 2,700 -240 Descending Chicago Center
04:12PM 40.3883 -86.7306 96° East 169 194 2,700 -120 Level Chicago Center
04:13PM 40.3950 -86.8014 277° West 157 181 2,600 -240 Descending Chicago Center
04:13PM 40.3956 -86.8006 49° Northeast 163 188 2,500 -840 Descending Chicago Center
04:14PM 40.4017 -86.8508 279° West 140 161 1,800 -420 Descending Chicago Center
04:14PM 40.4019 -86.8503 57° Northeast 161 185 2,100 -600 Climbing Chicago Center
04:15PM 40.4061 -86.8947 277° West 110 127 1,200 -960 Descending Chicago Center
04:17PM 40.4000 -86.9333 255° West  Level FlightAware Approximate